Información del aeropuerto LEMG

Información de pista
Pista 12 Longitud 9022 ft Anchura 148 ft
Elevación 52 ft Umbral 0 ft Rumbo 119
Pista 30 Longitud 9022 ft Anchura 148 ft
Elevación 31 ft Umbral 0 ft Rumbo 299
Pista 13 Longitud 10500 ft Anchura 148 ft
Elevación 52 ft Umbral 0 ft Rumbo 133
Pista 31 Longitud 10500 ft Anchura 148 ft
Elevación 31 ft Umbral 0 ft Rumbo 313
Frecuencias del aeropuerto
Tipo A/D Nombre APP Frecuencia 123.85 MHZ
Tipo ATIS Nombre ATIS Frecuencia 120.375 MHZ
Tipo CLD Nombre CLR DEL Frecuencia 121.875 MHZ
Tipo GND Nombre GND-W Frecuencia 121.7 MHZ
Tipo GND Nombre GND-E Frecuencia 121.95 MHZ
Tipo TWR Nombre TWR-W (RWY Frecuencia 118.15 MHZ
Tipo TWR Nombre TWR-E (RWY Frecuencia 118.775 MHZ
Radioayudas del aeropuerto
Tipo VOR-DME Nombre Martin Frecuencia 112600 KHZ
Tipo VOR-DME Nombre Malaga Frecuencia 112000 KHZ
Tipo VOR-DME Nombre Malaga Frecuencia 113550 KHZ
Tipo NDB Nombre Malaga Frecuencia 330 KHZ
Información meteorológica del aeropuerto y NOTAM
ADDS - METARS form results

(0453 UTC 05 March 2021)
Data provider http://aviationweather.gov/metar/data/
 
METAR text: LEMG 050430Z 11009KT 9999 FEW020 BKN025 14/11 Q1015 NOSIG
Conditions at: LEMG (MALAGA (CIV/MIL), ES) observed 0430 UTC 05 March 2021
Temperature: 14.0°C (57°F)
Dewpoint: 11.0°C (52°F) [RH = 82%]
Pressure (altimeter): 29.97 inches Hg (1015.0 mb)
Winds: from the ESE (110 degrees) at 10 MPH (9 knots; 4.6 m/s)
Visibility: 6 or more miles (10+ km)
Ceiling: 2500 feet AGL
Clouds: few clouds at 2000 feet AGL
broken clouds at 2500 feet AGL
Weather: no significant weather observed at this time

METAR text: LEMG 050400Z 12009KT 9999 FEW020 SCT038 BKN065 14/11 Q1015 NOSIG
Conditions at: LEMG (MALAGA (CIV/MIL), ES) observed 0400 UTC 05 March 2021
Temperature: 14.0°C (57°F)
Dewpoint: 11.0°C (52°F) [RH = 82%]
Pressure (altimeter): 29.97 inches Hg (1015.0 mb)
Winds: from the ESE (120 degrees) at 10 MPH (9 knots; 4.6 m/s)
Visibility: 6 or more miles (10+ km)
Ceiling: 6500 feet AGL
Clouds: few clouds at 2000 feet AGL
scattered clouds at 3800 feet AGL
broken clouds at 6500 feet AGL
Weather: no significant weather observed at this time

Forecast for: LEMG (MALAGA (CIV/MIL), ES)
Text: TAF LEMG 042300Z 0500/0524 12009KT 9999 SCT025 BKN035 TX16/0514Z TN12/0506Z
Forecast period: 0000 UTC 05 March 2021 to 0000 UTC 06 March 2021
Forecast type: FROM: standard forecast or significant change
Winds: from the ESE (120 degrees) at 10 MPH (9 knots; 4.6 m/s)
Visibility: 6 or more miles (10+ km)
Ceiling: 3500 feet AGL
Clouds: scattered clouds at 2500 feet AGL
broken clouds at 3500 feet AGL
Weather: no significant weather forecast for this period
Text: PROB40
Forecast period: 0000 to 1400 UTC 05 March 2021
Forecast type: TEMPORARY: The following changes expected for less than half the time period
Visibility: 2.49 miles (4.01 km)
Ceiling: 1200 feet AGL
Clouds: broken clouds at 1200 feet AGL
Weather: RA  (moderate rain)